George, Iowa
Current Conditions -  °F | °C
As of 4:55 PM on Thursday 18 Dec 2014 (Local Time) from KSHL Reporting Station
Overcast Overcast  
Wind Chill: 21°   Ceiling: 1400
Heat Index: 27°   Visibility: 9mi
Dew Point: 25°   Wind: 5mph
Humidity: 93%   Direction: 170°S
Pressure: 30.19"   Gusts: NA
Location:  43.34°N, 96°W
Report Text: KSHL 182255Z AUTO 17004KT 9SM BKN014 OVC025 M03/M04 A3019 RMK AO2
Loading
Personal Weather Stations






























Interactive Weather Map New forecast layout! Learn more

10-Day Weather Forecast

Advertisements
Track Severe Weather on mobile